Airfield :
LOGIN :

Register | Disclaimer

   EN    FR    IT 

 










Legend :    VFR   Marginal VFR   IFR   Intensive IFR   Very Intensive IFR
Visi :
Ceiling :
>= 8 km
>= 3000ft
5 to 8 km
1000 to 3000 ft
1500m to 5 km
500 to 1000 ft
800 to 1500m
200 to 500 ft
< 800m
< 200 ft
Symbols :   Thunderstorms  Fog  Heavy snow  Heavy precipitations  Wind > 20 kt
SIGMETs :     Misc.  Thunderstorms  Icing  Turbulence  Mountain Waves  Volcanic Ashes







- Airport Elevation : 154 ft
- IATA code : SZZ


EPSC - Szczecin Goleniow

CURRENT METAR :
  • 250630Z 27009KT 9999 FEW004 BKN007 11/10 Q1019

EXPIRED METARs :
  • 250600Z 27009KT 9999 BKN003 OVC006 11/11 Q1019
  • 250530Z 27005KT 9000 BKN003 11/10 Q1018
  • 250500Z 27005KT 8000 BKN002 10/10 Q1018
  • 250430Z 26004KT 5000 BR BKN002 09/09 Q1018
  • 250400Z 26003KT 3000 BR BKN002 09/08 Q1018

TAF TAF EPSC
Valid from the 25 at 06:00 until the 26 at 06:00 UTC


250530Z 2506/2606 28008KT 9999 BKN002
BECMG 2506/2509 SCT020
PROB40 2602/2606 BKN003
No reported NOTAMs for that airfield.



MET'MAP, your aeronautical weather chart ! - Copyright ORBIFLY December 2007 - Disclaimer

ORBIFLY MET'MAP TEAM :

Programming & Development : Alexandra Zaïnal
Concept & Development : Baudouin d'Aumeries
Co-Development & Prog : Marc-Olivier Méhu
Technical & hardware support : Manuel Goepfert

Contact : metmap@orbifly.com




SOURCES & CREDITS :

   NOAA